Time;durP1;ratioP1;P1;durP2;ratioP2;P2;SDS_P1;SDS_P2;PMS_P1;PMS_P2;Temp;Humidity;BMP_temperature;BMP_pressure;BME280_temperature;BME280_humidity;BME280_pressure;Samples;Min_cycle;Max_cycle;Signal;HPM_P1;HPM_P2
2022/08/30 00:01:03;;;;;;;;;;;;;;;;;;5014872;28;1930;-74
2022/08/30 00:03:30;;;;;;;;;;;;;;;;;;5031934;28;1397;-73
2022/08/30 00:05:56;;;;;;;;;;;;;;;;;;5032450;28;1068;-74
2022/08/30 00:08:22;;;;;;;;;;;;;;;;;;5032375;28;1012;-74
2022/08/30 00:10:50;;;;;;;;;;;;;;;;;;5032355;28;945;-76
2022/08/30 00:13:16;;;;;;;;;;;;;;;;;;5032277;28;1308;-74
2022/08/30 00:15:42;;;;;;;;;;;;;;;;;;5032339;28;1083;-74
2022/08/30 00:18:10;;;;;;;;;;;;;;;;;;5031823;28;1677;-74
2022/08/30 00:20:37;;;;;;;;;;;;;;;;;;5014412;28;1924;-74
2022/08/30 00:23:03;;;;;;;;;;;;;;;;;;5013834;28;1499;-76
2022/08/30 00:25:29;;;;;;;;;;;;;;;;;;5032030;28;1071;-74
2022/08/30 00:27:56;;;;;;;;;;;;;;;;;;5031958;28;801;-75
2022/08/30 00:30:22;;;;;;;;;;;;;;;;;;5032213;28;885;-77
2022/08/30 00:32:48;;;;;;;;;;;;;;;;;;5013928;28;1419;-76
2022/08/30 00:35:17;;;;;;;;;;;;;;;;;;5031880;28;968;-75
2022/08/30 00:37:43;;;;;;;;;;;;;;;;;;5032078;28;1135;-74
2022/08/30 00:40:10;;;;;;;;;;;;;;;;;;5031610;28;1977;-74
2022/08/30 00:42:38;;;;;;;;;;;;;;;;;;5014127;28;1447;-76
2022/08/30 00:45:10;;;;;;;;;;;;;;;;;;5031301;28;1388;-74
2022/08/30 00:47:36;;;;;;;;;;;;;;;;;;5031988;28;1015;-75
2022/08/30 00:50:02;;;;;;;;;;;;;;;;;;5031732;28;1083;-74
2022/08/30 00:52:30;;;;;;;;;;;;;;;;;;5031722;28;813;-74
2022/08/30 00:54:56;;;;;;;;;;;;;;;;;;5031679;28;1291;-76
2022/08/30 00:57:22;;;;;;;;;;;;;;;;;;5013803;28;1174;-75
2022/08/30 00:59:49;;;;;;;;;;;;;;;;;;5031656;28;1902;-75
2022/08/30 01:02:15;;;;;;;;;;;;;;;;;;5031039;28;1047;-74
2022/08/30 01:04:42;;;;;;;;;;;;;;;;;;5031678;28;1275;-74
2022/08/30 01:07:08;;;;;;;;;;;;;;;;;;5031145;28;1513;-74
2022/08/30 01:09:35;;;;;;;;;;;;;;;;;;5031331;28;1072;-74
2022/08/30 01:12:02;;;;;;;;;;;;;;;;;;5031108;28;882;-74
2022/08/30 01:14:28;;;;;;;;;;;;;;;;;;5031402;28;1279;-75
2022/08/30 01:16:55;;;;;;;;;;;;;;;;;;5031360;28;701;-75
2022/08/30 01:19:24;;;;;;;;;;;;;;;;;;5031310;28;1914;-75
2022/08/30 01:21:50;;;;;;;;;;;;;;;;;;5031030;28;957;-75
2022/08/30 01:24:18;;;;;;;;;;;;;;;;;;5013554;28;1298;-74
2022/08/30 01:26:44;;;;;;;;;;;;;;;;;;5031215;28;1072;-74
2022/08/30 01:29:11;;;;;;;;;;;;;;;;;;5031331;28;1119;-75
2022/08/30 01:31:38;;;;;;;;;;;;;;;;;;5031067;28;993;-74
2022/08/30 01:34:06;;;;;;;;;;;;;;;;;;5030982;28;1361;-74
2022/08/30 01:36:32;;;;;;;;;;;;;;;;;;5013730;28;1326;-75
2022/08/30 01:38:58;;;;;;;;;;;;;;;;;;5031282;28;1119;-74
2022/08/30 01:41:27;;;;;;;;;;;;;;;;;;5030695;28;1918;-74
2022/08/30 01:43:54;;;;;;;;;;;;;;;;;;5031157;28;1379;-76
2022/08/30 01:46:22;;;;;;;;;;;;;;;;;;5013399;28;1734;-74
2022/08/30 01:48:48;;;;;;;;;;;;;;;;;;5031452;28;1071;-75
2022/08/30 01:51:14;;;;;;;;;;;;;;;;;;5030900;28;1084;-75
2022/08/30 01:53:42;;;;;;;;;;;;;;;;;;5013508;28;1344;-75
2022/08/30 01:56:08;;;;;;;;;;;;;;;;;;5030788;28;1076;-74
2022/08/30 01:58:36;;;;;;;;;;;;;;;;;;5033985;28;1072;-74
2022/08/30 02:01:02;;;;;;;;;;;;;;;;;;5034467;28;1981;-75
2022/08/30 02:03:33;;;;;;;;;;;;;;;;;;5034502;28;1270;-75
2022/08/30 02:06:01;;;;;;;;;;;;;;;;;;5034687;28;1080;-75
2022/08/30 02:08:28;;;;;;;;;;;;;;;;;;5034645;28;1141;-75
2022/08/30 02:10:55;;;;;;;;;;;;;;;;;;5034474;28;1072;-74
2022/08/30 02:13:21;;;;;;;;;;;;;;;;;;5034322;28;1396;-75
2022/08/30 02:15:48;;;;;;;;;;;;;;;;;;5034510;28;780;-75
2022/08/30 02:18:15;;;;;;;;;;;;;;;;;;5034396;28;1028;-74
2022/08/30 02:20:41;;;;;;;;;;;;;;;;;;5034432;28;1980;-75
2022/08/30 02:23:07;;;;;;;;;;;;;;;;;;5033918;28;1341;-75
2022/08/30 02:25:33;;;;;;;;;;;;;;;;;;5016568;28;1263;-75
2022/08/30 02:27:59;;;;;;;;;;;;;;;;;;5034235;28;1071;-75
2022/08/30 02:30:26;;;;;;;;;;;;;;;;;;5016687;28;985;-75
2022/08/30 02:32:53;;;;;;;;;;;;;;;;;;5016113;28;1399;-75
2022/08/30 02:35:19;;;;;;;;;;;;;;;;;;5034249;28;1099;-75
2022/08/30 02:37:45;;;;;;;;;;;;;;;;;;5034109;28;1069;-77
2022/08/30 02:40:12;;;;;;;;;;;;;;;;;;5016222;28;2398;-75
2022/08/30 02:42:40;;;;;;;;;;;;;;;;;;5016219;28;1193;-74
2022/08/30 02:45:07;;;;;;;;;;;;;;;;;;5033967;28;1344;-75
2022/08/30 02:47:33;;;;;;;;;;;;;;;;;;5034025;28;898;-75
2022/08/30 02:50:00;;;;;;;;;;;;;;;;;;5033852;28;993;-75
2022/08/30 02:52:27;;;;;;;;;;;;;;;;;;5033670;28;1084;-75
2022/08/30 02:54:54;;;;;;;;;;;;;;;;;;5033746;28;1388;-75
2022/08/30 02:57:20;;;;;;;;;;;;;;;;;;5033725;28;1111;-75
2022/08/30 02:59:46;;;;;;;;;;;;;;;;;;5033836;28;1976;-74
2022/08/30 03:02:13;;;;;;;;;;;;;;;;;;5015449;28;1009;-74
2022/08/30 03:04:39;;;;;;;;;;;;;;;;;;5033727;28;1294;-74
2022/08/30 03:07:07;;;;;;;;;;;;;;;;;;5033634;28;1096;-74
2022/08/30 03:09:33;;;;;;;;;;;;;;;;;;5032949;28;1020;-75
2022/08/30 03:11:59;;;;;;;;;;;;;;;;;;5033269;28;1131;-74
2022/08/30 03:14:26;;;;;;;;;;;;;;;;;;5032917;28;1512;-74
2022/08/30 03:16:53;;;;;;;;;;;;;;;;;;5033409;28;1064;-74
2022/08/30 03:19:19;;;;;;;;;;;;;;;;;;5033347;28;1060;-75
2022/08/30 03:21:45;;;;;;;;;;;;;;;;;;5015486;28;1923;-75
2022/08/30 03:24:13;;;;;;;;;;;;;;;;;;5015261;28;1357;-75
2022/08/30 03:26:39;;;;;;;;;;;;;;;;;;5033170;28;933;-72
2022/08/30 03:29:05;;;;;;;;;;;;;;;;;;5015390;28;1302;-75
2022/08/30 03:31:32;;;;;;;;;;;;;;;;;;5032709;28;1135;-75
2022/08/30 03:33:58;;;;;;;;;;;;;;;;;;5015129;28;1406;-74
2022/08/30 03:36:24;;;;;;;;;;;;;;;;;;5015621;28;1243;-75
2022/08/30 03:38:50;;;;;;;;;;;;;;;;;;5032950;28;957;-75
2022/08/30 03:41:18;;;;;;;;;;;;;;;;;;5015010;28;1914;-73
2022/08/30 03:43:45;;;;;;;;;;;;;;;;;;5032736;28;1247;-75
2022/08/30 03:46:11;;;;;;;;;;;;;;;;;;5032701;28;1119;-75
2022/08/30 03:48:37;;;;;;;;;;;;;;;;;;5032908;28;1048;-75
2022/08/30 03:51:04;;;;;;;;;;;;;;;;;;5032777;28;1135;-75
2022/08/30 03:53:30;;;;;;;;;;;;;;;;;;5014808;28;1389;-75
2022/08/30 03:55:56;;;;;;;;;;;;;;;;;;5032707;28;941;-75
2022/08/30 03:58:24;;;;;;;;;;;;;;;;;;5031623;28;1352;-75
2022/08/30 04:00:50;;;;;;;;;;;;;;;;;;5018624;28;1989;-73
2022/08/30 04:03:17;;;;;;;;;;;;;;;;;;5024685;28;1448;-74
2022/08/30 04:05:44;;;;;;;;;;;;;;;;;;5029547;28;1455;-73
2022/08/30 04:08:10;;;;;;;;;;;;;;;;;;5005585;28;1467;-76
2022/08/30 04:10:36;;;;;;;;;;;;;;;;;;5026879;28;1417;-77
2022/08/30 04:13:04;;;;;;;;;;;;;;;;;;5029563;28;1437;-74
2022/08/30 04:15:31;;;;;;;;;;;;;;;;;;5029363;28;1756;-75
2022/08/30 04:17:58;;;;;;;;;;;;;;;;;;5028636;28;1741;-73
2022/08/30 04:20:24;;;;;;;;;;;;;;;;;;5029278;28;1914;-73
2022/08/30 04:22:50;;;;;;;;;;;;;;;;;;5029838;28;1399;-74
2022/08/30 04:25:16;;;;;;;;;;;;;;;;;;5012468;28;1286;-74
2022/08/30 04:27:43;;;;;;;;;;;;;;;;;;5029619;28;1666;-76
2022/08/30 04:30:10;;;;;;;;;;;;;;;;;;5011774;28;1162;-78
2022/08/30 04:32:38;;;;;;;;;;;;;;;;;;5027730;28;1808;-78
2022/08/30 04:35:04;;;;;;;;;;;;;;;;;;5025928;28;1599;-76
2022/08/30 04:37:31;;;;;;;;;;;;;;;;;;5023922;28;1554;-76
2022/08/30 04:39:59;;;;;;;;;;;;;;;;;;5029998;28;1087;-76
2022/08/30 04:42:25;;;;;;;;;;;;;;;;;;5029512;28;1948;-76
2022/08/30 04:44:51;;;;;;;;;;;;;;;;;;5025364;28;1749;-76
2022/08/30 04:47:18;;;;;;;;;;;;;;;;;;5006972;28;1527;-76
2022/08/30 04:49:45;;;;;;;;;;;;;;;;;;5026998;28;1606;-76
2022/08/30 04:52:12;;;;;;;;;;;;;;;;;;5028608;28;1115;-76
2022/08/30 04:54:38;;;;;;;;;;;;;;;;;;5010447;28;1828;-76
2022/08/30 04:57:04;;;;;;;;;;;;;;;;;;5029723;28;1182;-76
2022/08/30 04:59:32;;;;;;;;;;;;;;;;;;5027373;28;1547;-76
2022/08/30 05:01:58;;;;;;;;;;;;;;;;;;5025050;28;1910;-76
2022/08/30 05:04:24;;;;;;;;;;;;;;;;;;5029195;28;1302;-75
2022/08/30 05:06:52;;;;;;;;;;;;;;;;;;5022914;28;1725;-75
2022/08/30 05:09:20;;;;;;;;;;;;;;;;;;5029046;28;1139;-75
2022/08/30 05:11:46;;;;;;;;;;;;;;;;;;5028950;28;1095;-75
2022/08/30 05:14:12;;;;;;;;;;;;;;;;;;5027208;28;1749;-75
2022/08/30 05:16:40;;;;;;;;;;;;;;;;;;5030894;28;1710;-76
2022/08/30 05:19:06;;;;;;;;;;;;;;;;;;5029084;28;1150;-75
2022/08/30 05:21:33;;;;;;;;;;;;;;;;;;5028087;28;1916;-75
2022/08/30 05:24:00;;;;;;;;;;;;;;;;;;5028969;28;1342;-75
2022/08/30 05:26:27;;;;;;;;;;;;;;;;;;5026422;28;1714;-75
2022/08/30 05:28:54;;;;;;;;;;;;;;;;;;5023959;28;1765;-76
2022/08/30 05:31:21;;;;;;;;;;;;;;;;;;5013972;28;1436;-75
2022/08/30 05:33:48;;;;;;;;;;;;;;;;;;5032679;28;1825;-75
2022/08/30 05:36:14;;;;;;;;;;;;;;;;;;5017055;28;1189;-76
2022/08/30 05:38:41;;;;;;;;;;;;;;;;;;5060925;22;3748;-72
2022/08/30 05:41:08;;;;;;;;;;;;;;;;;;5054622;28;1911;-72
2022/08/30 05:43:35;;;;;;;;;;;;;;;;;;5034656;28;1224;-73
2022/08/30 05:46:01;;;;;;;;;;;;;;;;;;5053084;28;1451;-73
2022/08/30 05:48:28;;;;;;;;;;;;;;;;;;5035498;28;1368;-73
2022/08/30 05:51:01;;;;;;;;;;;;;;;;;;5035682;28;1315;-72
2022/08/30 05:53:27;;;;;;;;;;;;;;;;;;5054301;28;1087;-72
2022/08/30 05:55:53;;;;;;;;;;;;;;;;;;5036845;28;1227;-71
2022/08/30 05:58:21;;;;;;;;;;;;;;;;;;5054368;28;1317;-72
2022/08/30 06:00:47;;;;;;;;;;;;;;;;;;5036577;28;1922;-72
2022/08/30 06:03:13;;;;;;;;;;;;;;;;;;5036464;28;1461;-72
2022/08/30 06:05:39;;;;;;;;;;;;;;;;;;5054681;28;961;-72
2022/08/30 06:08:06;;;;;;;;;;;;;;;;;;5054355;28;1415;-71
2022/08/30 06:10:32;;;;;;;;;;;;;;;;;;5054636;28;953;-72
2022/08/30 06:12:58;;;;;;;;;;;;;;;;;;5036371;28;1230;-73
2022/08/30 06:15:25;;;;;;;;;;;;;;;;;;5062969;28;1452;-72
2022/08/30 06:17:52;;;;;;;;;;;;;;;;;;5065205;28;1464;-72
2022/08/30 06:20:19;;;;;;;;;;;;;;;;;;5069943;28;1250;-73
2022/08/30 06:22:45;;;;;;;;;;;;;;;;;;5050172;28;1943;-73
2022/08/30 06:25:11;;;;;;;;;;;;;;;;;;5070623;28;1391;-73
2022/08/30 06:27:38;;;;;;;;;;;;;;;;;;5064496;28;1122;-71
2022/08/30 06:30:07;;;;;;;;;;;;;;;;;;5074180;28;1510;-73
2022/08/30 06:32:34;;;;;;;;;;;;;;;;;;5073762;28;1075;-73
2022/08/30 06:35:00;;;;;;;;;;;;;;;;;;5074092;28;1298;-74
2022/08/30 06:37:27;;;;;;;;;;;;;;;;;;5064476;28;1448;-73
2022/08/30 06:39:54;;;;;;;;;;;;;;;;;;5057466;28;1389;-73
2022/08/30 06:42:21;;;;;;;;;;;;;;;;;;5052921;28;1973;-73
2022/08/30 06:44:47;;;;;;;;;;;;;;;;;;5058428;28;1483;-74
2022/08/30 06:47:13;;;;;;;;;;;;;;;;;;5065190;28;1399;-74
2022/08/30 06:49:41;;;;;;;;;;;;;;;;;;5064889;28;1665;-73
2022/08/30 06:52:07;;;;;;;;;;;;;;;;;;5069108;28;1392;-73
2022/08/30 06:54:33;;;;;;;;;;;;;;;;;;5067306;28;1213;-74
2022/08/30 06:56:59;;;;;;;;;;;;;;;;;;5072893;28;1400;-73
2022/08/30 06:59:25;;;;;;;;;;;;;;;;;;5053282;28;1575;-73
2022/08/30 07:01:52;;;;;;;;;;;;;;;;;;5066247;28;1981;-74
2022/08/30 07:04:18;;;;;;;;;;;;;;;;;;5035734;28;1190;-74
2022/08/30 07:06:45;;;;;;;;;;;;;;;;;;5068228;28;1515;-74
2022/08/30 07:09:11;;;;;;;;;;;;;;;;;;5073122;28;1321;-73
2022/08/30 07:11:39;;;;;;;;;;;;;;;;;;5072961;28;858;-74
2022/08/30 07:14:05;;;;;;;;;;;;;;;;;;5055237;28;1319;-73
2022/08/30 07:16:32;;;;;;;;;;;;;;;;;;5072915;28;1576;-74
2022/08/30 07:18:58;;;;;;;;;;;;;;;;;;5073163;28;1382;-73
2022/08/30 07:21:25;;;;;;;;;;;;;;;;;;5054347;28;1984;-74
2022/08/30 07:23:53;;;;;;;;;;;;;;;;;;5054304;28;1393;-74
2022/08/30 07:26:21;;;;;;;;;;;;;;;;;;5059714;28;1371;-74
2022/08/30 07:28:47;;;;;;;;;;;;;;;;;;5066741;28;1416;-73
2022/08/30 07:31:14;;;;;;;;;;;;;;;;;;5066687;28;1521;-72
2022/08/30 07:33:40;;;;;;;;;;;;;;;;;;5064400;28;1230;-74
2022/08/30 07:36:06;;;;;;;;;;;;;;;;;;5046455;28;1444;-73
2022/08/30 07:38:33;;;;;;;;;;;;;;;;;;5071098;28;1425;-74
2022/08/30 07:41:00;;;;;;;;;;;;;;;;;;5060408;28;1178;-73
2022/08/30 07:43:26;;;;;;;;;;;;;;;;;;5072637;28;1979;-73
2022/08/30 07:45:53;;;;;;;;;;;;;;;;;;5072558;28;976;-74
2022/08/30 07:48:19;;;;;;;;;;;;;;;;;;5072458;28;1322;-74
2022/08/30 07:50:45;;;;;;;;;;;;;;;;;;5070127;28;1502;-73
2022/08/30 07:53:12;;;;;;;;;;;;;;;;;;5066833;28;1422;-75
2022/08/30 07:55:38;;;;;;;;;;;;;;;;;;5065893;28;1419;-75
2022/08/30 07:58:05;;;;;;;;;;;;;;;;;;5063832;28;1426;-74
2022/08/30 08:00:32;;;;;;;;;;;;;;;;;;5069664;28;1439;-75
2022/08/30 08:02:58;;;;;;;;;;;;;;;;;;5062624;28;1973;-73
2022/08/30 08:05:24;;;;;;;;;;;;;;;;;;5072323;28;908;-75
2022/08/30 08:07:50;;;;;;;;;;;;;;;;;;5072235;28;1495;-75
2022/08/30 08:10:17;;;;;;;;;;;;;;;;;;5071918;28;834;-74
2022/08/30 08:12:43;;;;;;;;;;;;;;;;;;5072030;28;873;-75
2022/08/30 08:15:11;;;;;;;;;;;;;;;;;;5072042;28;1072;-75
2022/08/30 08:17:37;;;;;;;;;;;;;;;;;;5054262;28;1261;-75
2022/08/30 08:20:04;;;;;;;;;;;;;;;;;;5071918;28;1325;-75
2022/08/30 08:22:30;;;;;;;;;;;;;;;;;;5071758;28;1918;-75
2022/08/30 08:24:56;;;;;;;;;;;;;;;;;;5070496;28;1981;-75
2022/08/30 08:27:23;;;;;;;;;;;;;;;;;;5051797;28;1117;-76
2022/08/30 08:29:49;;;;;;;;;;;;;;;;;;5052072;28;1360;-75
2022/08/30 08:32:17;;;;;;;;;;;;;;;;;;5033792;28;1331;-75
2022/08/30 08:34:43;;;;;;;;;;;;;;;;;;5034233;28;843;-75
2022/08/30 08:37:09;;;;;;;;;;;;;;;;;;5051963;28;1143;-75
2022/08/30 08:39:35;;;;;;;;;;;;;;;;;;5051711;28;1360;-75
2022/08/30 08:42:03;;;;;;;;;;;;;;;;;;5051239;28;1910;-75
2022/08/30 08:44:33;;;;;;;;;;;;;;;;;;5051662;28;965;-75
2022/08/30 08:47:00;;;;;;;;;;;;;;;;;;5051597;28;1070;-75
2022/08/30 08:49:27;;;;;;;;;;;;;;;;;;5033663;28;1659;-75
2022/08/30 08:54:39;;;;;;;;;;;;;;;;;;5065895;28;964;-76
2022/08/30 08:57:05;;;;;;;;;;;;;;;;;;5060839;28;1344;-75
2022/08/30 08:59:31;;;;;;;;;;;;;;;;;;5065728;28;1450;-75
2022/08/30 09:01:59;;;;;;;;;;;;;;;;;;5053957;28;1975;-75
2022/08/30 09:04:28;;;;;;;;;;;;;;;;;;5033581;28;1130;-73
2022/08/30 09:06:57;;;;;;;;;;;;;;;;;;5033283;28;1478;-75
2022/08/30 09:09:26;;;;;;;;;;;;;;;;;;5058731;28;1413;-75
2022/08/30 09:11:53;;;;;;;;;;;;;;;;;;5040535;28;1363;-75
2022/08/30 09:14:20;;;;;;;;;;;;;;;;;;5045994;28;1270;-75
2022/08/30 09:16:47;;;;;;;;;;;;;;;;;;5058868;28;1292;-75
2022/08/30 09:19:25;;;;;;;;;;;;;;;;;;5068198;28;1341;-75
2022/08/30 09:21:52;;;;;;;;;;;;;;;;;;5067088;28;1984;-75
2022/08/30 09:24:19;;;;;;;;;;;;;;;;;;5066076;28;1358;-75
2022/08/30 09:26:45;;;;;;;;;;;;;;;;;;5062120;28;1247;-75
2022/08/30 09:29:16;;;;;;;;;;;;;;;;;;5066818;28;1384;-76
2022/08/30 09:31:45;;;;;;;;;;;;;;;;;;5060232;28;1118;-75
2022/08/30 09:34:16;;;;;;;;;;;;;;;;;;5065712;28;1424;-73
2022/08/30 09:36:43;;;;;;;;;;;;;;;;;;5040994;28;1427;-74
2022/08/30 09:39:14;;;;;;;;;;;;;;;;;;5058283;28;1357;-74
2022/08/30 09:41:42;;;;;;;;;;;;;;;;;;5053965;28;1365;-74
2022/08/30 09:44:10;;;;;;;;;;;;;;;;;;5058938;28;1925;-74
2022/08/30 09:46:42;;;;;;;;;;;;;;;;;;5056612;28;1368;-74
2022/08/30 09:49:17;;;;;;;;;;;;;;;;;;5068946;28;1318;-74
2022/08/30 09:51:45;;;;;;;;;;;;;;;;;;5064943;28;1896;-74
2022/08/30 09:54:14;;;;;;;;;;;;;;;;;;5056600;28;1675;-74
2022/08/30 09:56:43;;;;;;;;;;;;;;;;;;5062178;28;1746;-73
2022/08/30 09:59:11;;;;;;;;;;;;;;;;;;5061937;28;1672;-73
2022/08/30 10:01:39;;;;;;;;;;;;;;;;;;5041986;28;1123;-74
2022/08/30 10:04:07;;;;;;;;;;;;;;;;;;5066064;28;1965;-73
2022/08/30 10:06:34;;;;;;;;;;;;;;;;;;5040307;28;1935;-75
2022/08/30 10:09:03;;;;;;;;;;;;;;;;;;5043913;28;1688;-72
2022/08/30 10:11:32;;;;;;;;;;;;;;;;;;5061863;28;1798;-74
2022/08/30 10:14:23;;;;;;;;;;;;;;;;;;5059312;28;1403;-74
2022/08/30 10:16:52;;;;;;;;;;;;;;;;;;5050612;28;1369;-74
2022/08/30 10:19:21;;;;;;;;;;;;;;;;;;5054475;28;1594;-75
2022/08/30 10:21:48;;;;;;;;;;;;;;;;;;5066775;28;1855;-74
2022/08/30 10:24:16;;;;;;;;;;;;;;;;;;5063545;28;1906;-74
2022/08/30 10:26:43;;;;;;;;;;;;;;;;;;5047399;28;1440;-75
2022/08/30 10:29:10;;;;;;;;;;;;;;;;;;5037913;28;1342;-74
2022/08/30 10:31:38;;;;;;;;;;;;;;;;;;5054110;28;972;-75
2022/08/30 10:34:07;;;;;;;;;;;;;;;;;;5063479;28;1400;-74
2022/08/30 10:36:36;;;;;;;;;;;;;;;;;;5065951;28;1479;-74
2022/08/30 10:39:02;;;;;;;;;;;;;;;;;;5070797;28;1536;-75
2022/08/30 10:41:29;;;;;;;;;;;;;;;;;;5067686;28;1874;-74
2022/08/30 10:43:58;;;;;;;;;;;;;;;;;;5053687;28;2128;-75
2022/08/30 10:46:26;;;;;;;;;;;;;;;;;;5065438;28;1225;-75
2022/08/30 10:48:52;;;;;;;;;;;;;;;;;;5055818;28;1396;-75
2022/08/30 10:51:22;;;;;;;;;;;;;;;;;;5073541;28;858;-74
2022/08/30 10:53:50;;;;;;;;;;;;;;;;;;5073682;28;1314;-75
2022/08/30 10:56:19;;;;;;;;;;;;;;;;;;5073764;28;1063;-74
2022/08/30 10:58:45;;;;;;;;;;;;;;;;;;5073652;28;1305;-75
2022/08/30 11:01:16;;;;;;;;;;;;;;;;;;5073294;28;1123;-74
2022/08/30 11:03:51;;;;;;;;;;;;;;;;;;5073556;28;1914;-74
2022/08/30 11:06:18;;;;;;;;;;;;;;;;;;5055884;28;779;-74
2022/08/30 11:09:05;;;;;;;;;;;;;;;;;;5073570;28;1394;-74
2022/08/30 11:11:34;;;;;;;;;;;;;;;;;;5073095;28;1011;-74
2022/08/30 11:14:01;;;;;;;;;;;;;;;;;;5073406;28;869;-74
2022/08/30 11:16:34;;;;;;;;;;;;;;;;;;5055237;28;1324;-75
2022/08/30 11:19:00;;;;;;;;;;;;;;;;;;5073165;28;1321;-75
2022/08/30 11:21:31;;;;;;;;;;;;;;;;;;5073158;28;941;-74
2022/08/30 11:23:58;;;;;;;;;;;;;;;;;;5055295;28;1910;-75
2022/08/30 11:26:43;;;;;;;;;;;;;;;;;;5073062;28;801;-75
2022/08/30 11:29:15;;;;;;;;;;;;;;;;;;5054631;28;1376;-75
2022/08/30 11:31:42;;;;;;;;;;;;;;;;;;5053522;28;1483;-75
2022/08/30 11:34:08;;;;;;;;;;;;;;;;;;5072994;28;1118;-75
2022/08/30 11:37:05;;;;;;;;;;;;;;;;;;5054994;28;1181;-74
2022/08/30 11:39:43;;;;;;;;;;;;;;;;;;5072669;28;1341;-75
2022/08/30 11:42:11;;;;;;;;;;;;;;;;;;5054389;28;1054;-75
2022/08/30 11:44:38;;;;;;;;;;;;;;;;;;5072822;28;1985;-75
2022/08/30 11:47:27;;;;;;;;;;;;;;;;;;5054745;28;1338;-75
2022/08/30 11:49:57;;;;;;;;;;;;;;;;;;5072180;28;1485;-74
2022/08/30 11:52:26;;;;;;;;;;;;;;;;;;5072221;28;1987;-74
2022/08/30 11:55:11;;;;;;;;;;;;;;;;;;5073710;28;1092;-73
2022/08/30 11:57:38;;;;;;;;;;;;;;;;;;5072674;28;976;-73
2022/08/30 12:00:07;;;;;;;;;;;;;;;;;;5072313;28;1320;-72
2022/08/30 12:02:47;;;;;;;;;;;;;;;;;;5065439;28;1918;-73
2022/08/30 12:05:32;;;;;;;;;;;;;;;;;;5062210;28;1410;-72
2022/08/30 12:07:58;;;;;;;;;;;;;;;;;;5050944;28;1389;-71
2022/08/30 12:10:35;;;;;;;;;;;;;;;;;;5058934;28;1336;-72
2022/08/30 12:13:01;;;;;;;;;;;;;;;;;;5042094;28;1202;-72
2022/08/30 12:15:48;;;;;;;;;;;;;;;;;;5034459;28;1490;-73
2022/08/30 12:18:29;;;;;;;;;;;;;;;;;;5052087;28;1328;-72
2022/08/30 12:21:14;;;;;;;;;;;;;;;;;;5037801;28;1611;-73
2022/08/30 12:23:42;;;;;;;;;;;;;;;;;;5056183;28;1994;-72
2022/08/30 12:26:09;;;;;;;;;;;;;;;;;;5064636;28;1611;-72
2022/08/30 12:28:35;;;;;;;;;;;;;;;;;;5047299;28;1419;-73
2022/08/30 12:31:06;;;;;;;;;;;;;;;;;;5068261;28;1491;-72
2022/08/30 12:33:34;;;;;;;;;;;;;;;;;;5063441;28;1169;-72
2022/08/30 12:36:01;;;;;;;;;;;;;;;;;;5071566;28;1497;-72
2022/08/30 12:38:28;;;;;;;;;;;;;;;;;;5053717;28;1430;-73
2022/08/30 12:40:56;;;;;;;;;;;;;;;;;;5071105;28;877;-73
2022/08/30 12:43:24;;;;;;;;;;;;;;;;;;5066177;28;1973;-73
2022/08/30 12:45:50;;;;;;;;;;;;;;;;;;5067236;28;1178;-72
2022/08/30 12:48:16;;;;;;;;;;;;;;;;;;5068306;28;1483;-74
2022/08/30 12:50:47;;;;;;;;;;;;;;;;;;5063338;28;1428;-73
2022/08/30 12:53:13;;;;;;;;;;;;;;;;;;5059368;28;1183;-73
2022/08/30 12:55:49;;;;;;;;;;;;;;;;;;5033487;28;1223;-73
2022/08/30 12:58:15;;;;;;;;;;;;;;;;;;5033403;28;1411;-73
2022/08/30 13:00:42;;;;;;;;;;;;;;;;;;5033556;28;1137;-73
2022/08/30 13:03:26;;;;;;;;;;;;;;;;;;5050896;28;1914;-72
2022/08/30 13:05:54;;;;;;;;;;;;;;;;;;5051428;28;1068;-73
2022/08/30 13:08:21;;;;;;;;;;;;;;;;;;5051267;28;1310;-73
2022/08/30 13:10:51;;;;;;;;;;;;;;;;;;5051394;28;1075;-72
2022/08/30 13:13:26;;;;;;;;;;;;;;;;;;5051060;28;964;-74
2022/08/30 13:15:52;;;;;;;;;;;;;;;;;;5051500;28;878;-73
2022/08/30 13:18:20;;;;;;;;;;;;;;;;;;5061055;28;1384;-74
2022/08/30 13:20:46;;;;;;;;;;;;;;;;;;5062962;28;1222;-73
2022/08/30 13:23:21;;;;;;;;;;;;;;;;;;5070959;28;1914;-73
2022/08/30 13:25:47;;;;;;;;;;;;;;;;;;5053323;28;1032;-73
2022/08/30 13:28:13;;;;;;;;;;;;;;;;;;5050729;28;1427;-73
2022/08/30 13:30:39;;;;;;;;;;;;;;;;;;5062337;28;1421;-73
2022/08/30 13:33:05;;;;;;;;;;;;;;;;;;5070681;28;977;-73
2022/08/30 13:35:32;;;;;;;;;;;;;;;;;;5071268;28;770;-73
2022/08/30 13:37:58;;;;;;;;;;;;;;;;;;5070965;28;1308;-72
2022/08/30 13:40:26;;;;;;;;;;;;;;;;;;5071050;28;1070;-72
2022/08/30 13:42:52;;;;;;;;;;;;;;;;;;5070660;28;965;-72
2022/08/30 13:45:19;;;;;;;;;;;;;;;;;;5070924;28;1910;-73
2022/08/30 13:47:46;;;;;;;;;;;;;;;;;;5052985;28;1172;-73
2022/08/30 13:50:12;;;;;;;;;;;;;;;;;;5070912;28;1335;-74
2022/08/30 13:52:38;;;;;;;;;;;;;;;;;;5070571;28;1431;-74
2022/08/30 13:55:05;;;;;;;;;;;;;;;;;;5046881;28;1246;-73
2022/08/30 13:57:33;;;;;;;;;;;;;;;;;;5055213;28;1117;-73
2022/08/30 13:59:59;;;;;;;;;;;;;;;;;;5054912;28;1394;-73
2022/08/30 14:02:25;;;;;;;;;;;;;;;;;;5054184;28;1138;-72
2022/08/30 14:04:51;;;;;;;;;;;;;;;;;;5066388;28;1941;-73
2022/08/30 14:07:18;;;;;;;;;;;;;;;;;;5062329;28;1253;-73
2022/08/30 14:09:44;;;;;;;;;;;;;;;;;;5067348;28;1321;-73
2022/08/30 14:12:10;;;;;;;;;;;;;;;;;;5052095;28;1308;-73
2022/08/30 14:14:38;;;;;;;;;;;;;;;;;;5049462;28;1368;-74
2022/08/30 14:17:04;;;;;;;;;;;;;;;;;;5053989;28;1483;-72
2022/08/30 14:19:30;;;;;;;;;;;;;;;;;;5058706;28;1457;-74
2022/08/30 14:21:56;;;;;;;;;;;;;;;;;;5063739;28;1476;-73
2022/08/30 14:24:22;;;;;;;;;;;;;;;;;;5053641;28;1973;-73
2022/08/30 14:26:50;;;;;;;;;;;;;;;;;;5062018;28;1424;-73
2022/08/30 14:29:17;;;;;;;;;;;;;;;;;;5055608;28;2093;-73
2022/08/30 14:31:47;;;;;;;;;;;;;;;;;;5069767;28;1459;-72
2022/08/30 14:34:13;;;;;;;;;;;;;;;;;;5073921;28;1159;-73
2022/08/30 14:36:40;;;;;;;;;;;;;;;;;;5074031;28;1087;-71
2022/08/30 14:39:07;;;;;;;;;;;;;;;;;;5057229;28;1318;-72
2022/08/30 14:41:33;;;;;;;;;;;;;;;;;;5073718;28;941;-74
2022/08/30 14:43:59;;;;;;;;;;;;;;;;;;5073719;28;1902;-72
2022/08/30 14:46:25;;;;;;;;;;;;;;;;;;5074045;28;1122;-74
2022/08/30 14:48:53;;;;;;;;;;;;;;;;;;5073485;28;1341;-73
2022/08/30 14:51:20;;;;;;;;;;;;;;;;;;5072638;28;983;-73
2022/08/30 14:53:46;;;;;;;;;;;;;;;;;;5073867;28;1280;-72
2022/08/30 14:56:14;;;;;;;;;;;;;;;;;;5073644;28;984;-73
2022/08/30 14:58:40;;;;;;;;;;;;;;;;;;5072906;28;1390;-74
2022/08/30 15:01:07;;;;;;;;;;;;;;;;;;5063099;28;1622;-74
2022/08/30 15:03:33;;;;;;;;;;;;;;;;;;5065640;28;1909;-74
2022/08/30 15:06:01;;;;;;;;;;;;;;;;;;5045244;28;1420;-73
2022/08/30 15:08:27;;;;;;;;;;;;;;;;;;5064415;28;1487;-73
2022/08/30 15:10:53;;;;;;;;;;;;;;;;;;5069792;28;1166;-73
2022/08/30 15:13:19;;;;;;;;;;;;;;;;;;5066939;28;1451;-73
2022/08/30 15:15:46;;;;;;;;;;;;;;;;;;5040384;28;1428;-74
2022/08/30 15:18:12;;;;;;;;;;;;;;;;;;5057515;28;1547;-74
2022/08/30 15:20:44;;;;;;;;;;;;;;;;;;5066297;28;1412;-73
2022/08/30 15:23:11;;;;;;;;;;;;;;;;;;5067172;28;1258;-72
2022/08/30 15:25:38;;;;;;;;;;;;;;;;;;5073037;28;1981;-73
2022/08/30 15:28:04;;;;;;;;;;;;;;;;;;5073102;28;1318;-74
2022/08/30 15:30:30;;;;;;;;;;;;;;;;;;5063737;28;1384;-74
2022/08/30 15:32:56;;;;;;;;;;;;;;;;;;5068141;28;1503;-73
2022/08/30 15:35:22;;;;;;;;;;;;;;;;;;5062904;28;1427;-74
2022/08/30 15:37:48;;;;;;;;;;;;;;;;;;5067873;28;1486;-73
2022/08/30 15:40:16;;;;;;;;;;;;;;;;;;5063651;28;1940;-73
2022/08/30 15:42:43;;;;;;;;;;;;;;;;;;5071439;28;1394;-73
2022/08/30 15:45:10;;;;;;;;;;;;;;;;;;5060876;28;1914;-73
2022/08/30 15:47:36;;;;;;;;;;;;;;;;;;5047606;28;1393;-74
2022/08/30 15:50:04;;;;;;;;;;;;;;;;;;5056693;28;1462;-73
2022/08/30 15:52:30;;;;;;;;;;;;;;;;;;5044340;28;1469;-73
2022/08/30 15:54:57;;;;;;;;;;;;;;;;;;5049656;28;1408;-72
2022/08/30 15:57:24;;;;;;;;;;;;;;;;;;5041510;28;1479;-73
2022/08/30 15:59:51;;;;;;;;;;;;;;;;;;5064409;28;1602;-73
2022/08/30 16:02:17;;;;;;;;;;;;;;;;;;5068835;28;1407;-73
2022/08/30 16:04:43;;;;;;;;;;;;;;;;;;5071354;28;1982;-73
2022/08/30 16:07:09;;;;;;;;;;;;;;;;;;5047488;28;1460;-73
2022/08/30 16:09:36;;;;;;;;;;;;;;;;;;5070585;28;1506;-75
2022/08/30 16:12:03;;;;;;;;;;;;;;;;;;5062765;28;1738;-74
2022/08/30 16:14:31;;;;;;;;;;;;;;;;;;5065152;28;1485;-73
2022/08/30 16:16:57;;;;;;;;;;;;;;;;;;5066024;28;1331;-74
2022/08/30 16:19:23;;;;;;;;;;;;;;;;;;5067265;28;1446;-72
2022/08/30 16:21:49;;;;;;;;;;;;;;;;;;5065469;28;1591;-73
2022/08/30 16:24:17;;;;;;;;;;;;;;;;;;5042524;28;1922;-74
2022/08/30 16:26:43;;;;;;;;;;;;;;;;;;5044356;28;1413;-74
2022/08/30 16:29:09;;;;;;;;;;;;;;;;;;5065552;28;1474;-72
2022/08/30 16:31:37;;;;;;;;;;;;;;;;;;5044463;28;1352;-73
2022/08/30 16:34:03;;;;;;;;;;;;;;;;;;5068993;28;1433;-72
2022/08/30 16:36:29;;;;;;;;;;;;;;;;;;5063589;28;1319;-71
2022/08/30 16:38:55;;;;;;;;;;;;;;;;;;5038416;28;1419;-72
2022/08/30 16:41:22;;;;;;;;;;;;;;;;;;5041115;28;1170;-72
2022/08/30 16:43:48;;;;;;;;;;;;;;;;;;5044693;28;1433;-74
2022/08/30 16:46:15;;;;;;;;;;;;;;;;;;5052726;28;1914;-73
2022/08/30 16:48:43;;;;;;;;;;;;;;;;;;5063331;28;1413;-73
2022/08/30 16:51:10;;;;;;;;;;;;;;;;;;5042663;28;1206;-73
2022/08/30 16:53:37;;;;;;;;;;;;;;;;;;5060596;28;1502;-73
2022/08/30 16:56:04;;;;;;;;;;;;;;;;;;5066111;28;1625;-73
2022/08/30 16:58:30;;;;;;;;;;;;;;;;;;5063632;28;1464;-74
2022/08/30 17:00:57;;;;;;;;;;;;;;;;;;5059819;28;1351;-72
2022/08/30 17:03:23;;;;;;;;;;;;;;;;;;5041028;28;1280;-74
2022/08/30 17:05:50;;;;;;;;;;;;;;;;;;5063897;28;1971;-74
2022/08/30 17:08:16;;;;;;;;;;;;;;;;;;5059706;28;1410;-75
2022/08/30 17:10:43;;;;;;;;;;;;;;;;;;5064220;28;1123;-73